Time;durP1;ratioP1;P1;durP2;ratioP2;P2;SDS_P1;SDS_P2;PMS_P1;PMS_P2;Temp;Humidity;BMP_temperature;BMP_pressure;BME280_temperature;BME280_humidity;BME280_pressure;Samples;Min_cycle;Max_cycle;Signal;HPM_P1;HPM_P2
2021/12/12 00:01:23;;;;;;;22.63;15.70;;;;;;;0.80;95.73;101117.50;5023888;28;20211;-80
2021/12/12 00:03:53;;;;;;;29.87;17.30;;;;;;;0.87;96.94;101108.28;5021665;28;20207;-81
2021/12/12 00:06:25;;;;;;;24.60;16.43;;;;;;;0.92;97.21;101096.44;5034283;28;20702;-80
2021/12/12 00:08:57;;;;;;;31.00;19.13;;;;;;;0.94;96.37;101093.09;5023360;28;20192;-81
2021/12/12 00:11:27;;;;;;;29.63;19.73;;;;;;;0.98;96.73;101094.06;5016446;28;20263;-79
2021/12/12 00:13:57;;;;;;;26.90;19.53;;;;;;;1.02;96.66;101095.91;5021261;28;20729;-79
2021/12/12 00:16:23;;;;;;;25.17;17.83;;;;;;;1.07;95.94;101094.34;5021120;28;20203;-81
2021/12/12 00:18:50;;;;;;;24.03;17.93;;;;;;;1.06;96.77;101095.16;5012885;28;20233;-80
2021/12/12 00:21:18;;;;;;;21.63;16.77;;;;;;;1.10;97.15;101085.84;5019691;28;20637;-79
2021/12/12 00:23:45;;;;;;;19.93;16.43;;;;;;;1.19;96.72;101079.28;5011642;28;20215;-80
2021/12/12 00:26:13;;;;;;;20.77;16.00;;;;;;;1.15;96.24;101082.59;5012783;28;20710;-80
2021/12/12 00:28:40;;;;;;;23.67;16.23;;;;;;;1.13;95.60;101107.41;5012420;28;20195;-79
2021/12/12 00:31:12;;;;;;;17.70;15.57;;;;;;;1.11;96.13;101127.03;5007646;28;20200;-80
2021/12/12 00:33:42;;;;;;;28.50;17.73;;;;;;;1.09;96.07;101122.66;5010243;28;20223;-79
2021/12/12 00:36:10;;;;;;;24.23;17.23;;;;;;;1.05;95.97;101115.69;5017676;23;20235;-77
2021/12/12 00:38:37;;;;;;;24.53;16.83;;;;;;;1.07;95.57;101120.06;4979221;28;20299;-80
2021/12/12 00:41:07;;;;;;;21.50;16.43;;;;;;;1.02;96.16;101124.19;4983265;28;20208;-77
2021/12/12 00:43:39;;;;;;;21.60;15.47;;;;;;;0.98;96.78;101114.63;4981178;28;20227;-78
2021/12/12 00:46:07;;;;;;;23.93;16.47;;;;;;;1.06;97.00;101099.44;4986957;28;20228;-78
2021/12/12 00:48:35;;;;;;;26.23;18.37;;;;;;;1.10;97.17;101097.00;4986917;28;20247;-79
2021/12/12 00:51:05;;;;;;;22.40;16.67;;;;;;;1.11;96.50;101100.44;4992934;28;20205;-77
2021/12/12 00:53:32;;;;;;;25.13;17.13;;;;;;;1.11;96.88;101093.63;4988630;28;20196;-77
2021/12/12 00:55:59;;;;;;;23.93;16.87;;;;;;;1.13;96.77;101084.25;4994775;28;20224;-80
2021/12/12 00:58:27;;;;;;;28.60;17.60;;;;;;;1.10;97.03;101097.00;4994872;28;20223;-79
2021/12/12 01:00:57;;;;;;;20.80;14.97;;;;;;;1.13;96.21;101106.50;5000768;28;20207;-79
2021/12/12 01:03:29;;;;;;;23.70;15.87;;;;;;;1.16;96.06;101106.59;4997274;28;20209;-79
2021/12/12 01:05:59;;;;;;;24.47;15.23;;;;;;;1.16;96.54;101109.19;5000256;28;20518;-79
2021/12/12 01:08:26;;;;;;;24.40;17.33;;;;;;;1.21;96.55;101106.72;4994500;28;20203;-79
2021/12/12 01:10:56;;;;;;;28.07;16.27;;;;;;;1.28;95.89;101096.69;4982037;28;20209;-79
2021/12/12 01:13:24;;;;;;;26.80;17.73;;;;;;;1.32;95.96;101100.22;4983353;28;20659;-79
2021/12/12 01:15:53;;;;;;;25.83;16.37;;;;;;;1.27;95.80;101122.34;4985683;28;20224;-77
2021/12/12 01:18:25;;;;;;;27.50;17.13;;;;;;;1.31;96.18;101108.75;4993380;28;20207;-79
2021/12/12 01:20:55;;;;;;;32.17;18.27;;;;;;;1.33;96.83;101102.84;4974532;28;20299;-78
2021/12/12 01:23:25;;;;;;;28.03;16.73;;;;;;;1.37;96.44;101096.09;4996308;28;20218;-78
2021/12/12 01:25:53;;;;;;;20.87;15.70;;;;;;;1.28;95.54;101106.97;4990334;28;20235;-78
2021/12/12 01:28:25;;;;;;;27.23;16.80;;;;;;;1.31;95.83;101108.75;4990142;28;20220;-79
2021/12/12 01:30:52;;;;;;;32.63;18.13;;;;;;;1.37;96.12;101103.81;4992325;28;20263;-79
2021/12/12 01:33:32;;;;;;;32.17;17.63;;;;;;;1.48;97.08;101091.25;4995742;28;20255;-80
2021/12/12 01:35:59;;;;;;;37.63;18.30;;;;;;;1.53;96.38;101093.13;4990515;28;20239;-77
2021/12/12 01:41:10;;;;;;;29.90;18.63;;;;;;;1.67;96.42;101078.06;4985465;28;20215;-78
2021/12/12 01:43:41;;;;;;;32.33;18.07;;;;;;;1.68;96.54;101092.66;4980954;28;20205;-77
2021/12/12 01:46:15;;;;;;;32.93;18.00;;;;;;;1.75;96.80;101094.59;4997846;28;20228;-77
2021/12/12 01:48:48;;;;;;;32.60;18.20;;;;;;;1.80;96.36;101099.84;4982002;28;20212;-77
2021/12/12 01:51:15;;;;;;;27.20;17.73;;;;;;;1.88;96.07;101098.34;4991586;28;20235;-77
2021/12/12 01:53:44;;;;;;;28.57;17.93;;;;;;;1.86;96.03;101124.91;4979487;28;20680;-78
2021/12/12 01:56:18;;;;;;;28.23;16.20;;;;;;;1.91;95.46;101113.03;4980348;28;20423;-79
2021/12/12 01:58:48;;;;;;;32.50;17.53;;;;;;;1.98;96.18;101113.25;4983514;28;20224;-79
2021/12/12 02:01:17;;;;;;;25.73;16.33;;;;;;;1.94;95.39;101114.00;4984502;28;20204;-79
2021/12/12 02:03:49;;;;;;;19.70;15.03;;;;;;;1.89;95.06;101120.72;4997355;28;20200;-79
2021/12/12 02:06:18;;;;;;;26.77;16.27;;;;;;;1.85;94.64;101125.75;4990835;28;20232;-79
2021/12/12 02:08:47;;;;;;;29.30;16.43;;;;;;;1.87;94.86;101117.22;4993350;28;20200;-78
2021/12/12 02:11:18;;;;;;;26.87;16.87;;;;;;;1.91;95.69;101125.91;4984422;28;20281;-79
2021/12/12 02:13:49;;;;;;;24.77;15.87;;;;;;;1.89;94.94;101125.84;4989676;28;20247;-77
2021/12/12 02:16:16;;;;;;;31.47;16.63;;;;;;;1.85;95.43;101131.75;4995014;28;20227;-77
2021/12/12 02:18:47;;;;;;;28.63;16.80;;;;;;;1.89;95.10;101123.28;4983659;28;20199;-77
2021/12/12 02:21:22;;;;;;;22.30;15.97;;;;;;;1.92;95.31;101113.09;4983121;28;20196;-79
2021/12/12 02:24:38;;;;;;;26.73;15.37;;;;;;;1.97;95.51;101123.50;4987805;28;20282;-79
2021/12/12 02:35:30;;;;;;;23.07;14.23;;;;;;;1.88;94.76;101139.53;4986272;28;20753;-78
2021/12/12 02:37:59;;;;;;;22.53;14.47;;;;;;;1.87;94.92;101137.81;4994867;28;20568;-79
2021/12/12 02:40:29;;;;;;;19.60;14.27;;;;;;;1.87;95.32;101140.38;4985983;28;20621;-79
2021/12/12 02:42:57;;;;;;;21.03;14.77;;;;;;;1.86;94.39;101140.34;4991252;28;20203;-79
2021/12/12 02:45:27;;;;;;;26.90;14.93;;;;;;;1.87;95.02;101137.81;4992713;28;20249;-79
2021/12/12 02:47:59;;;;;;;25.17;15.47;;;;;;;1.95;94.25;101145.75;4986626;28;20632;-78
2021/12/12 02:50:30;;;;;;;17.70;13.60;;;;;;;1.94;94.06;101150.03;4985635;28;20204;-79
2021/12/12 02:53:00;;;;;;;18.17;14.17;;;;;;;2.03;94.17;101167.44;4982743;28;20200;-77
2021/12/12 02:55:31;;;;;;;19.67;14.30;;;;;;;2.07;94.06;101170.97;4987750;28;20738;-77
2021/12/12 02:58:00;;;;;;;24.37;15.30;;;;;;;2.12;94.04;101183.16;4980575;28;20188;-77
2021/12/12 03:00:31;;;;;;;26.33;14.83;;;;;;;2.19;93.04;101209.94;4987080;28;20263;-77
2021/12/12 03:03:00;;;;;;;21.53;14.30;;;;;;;2.21;92.13;101230.59;4986721;28;20196;-77
2021/12/12 03:05:29;;;;;;;17.27;13.83;;;;;;;2.25;91.99;101237.56;4980334;28;20216;-77
2021/12/12 03:07:57;;;;;;;21.83;14.13;;;;;;;2.24;91.95;101247.00;4983104;28;20700;-77
2021/12/12 03:10:30;;;;;;;16.53;13.63;;;;;;;2.31;91.87;101245.47;4983803;28;20204;-76
2021/12/12 03:12:57;;;;;;;18.50;14.20;;;;;;;2.29;91.41;101265.16;4978770;28;20612;-76
2021/12/12 03:15:26;;;;;;;18.07;13.60;;;;;;;2.30;90.65;101277.19;4988673;28;20219;-77
2021/12/12 03:17:55;;;;;;;18.17;12.53;;;;;;;2.34;90.98;101290.22;4993642;28;20282;-76
2021/12/12 03:20:25;;;;;;;16.13;13.13;;;;;;;2.40;90.26;101299.81;4993237;28;20208;-77
2021/12/12 03:22:54;;;;;;;17.87;12.60;;;;;;;2.36;89.74;101328.91;4993733;28;20265;-77
2021/12/12 03:25:21;;;;;;;14.80;12.33;;;;;;;2.44;89.76;101336.84;4980945;28;20435;-77
2021/12/12 03:27:50;;;;;;;15.17;13.40;;;;;;;2.43;89.06;101348.00;4990203;28;20251;-76
2021/12/12 03:30:18;;;;;;;13.40;12.10;;;;;;;2.56;89.37;101339.78;4993776;28;20200;-77
2021/12/12 03:32:45;;;;;;;13.13;11.73;;;;;;;2.52;89.29;101337.94;4977862;28;20254;-77
2021/12/12 03:35:12;;;;;;;13.63;12.20;;;;;;;2.53;89.42;101344.84;4976854;28;20706;-77
2021/12/12 03:37:39;;;;;;;15.63;12.30;;;;;;;2.53;89.02;101342.25;4987281;28;20239;-77
2021/12/12 03:40:11;;;;;;;14.37;11.70;;;;;;;2.51;88.29;101346.50;4980017;28;20351;-76
2021/12/12 03:42:37;;;;;;;18.27;11.67;;;;;;;2.39;88.34;101350.47;4979064;28;20197;-76
2021/12/12 03:45:07;;;;;;;13.47;11.73;;;;;;;2.37;89.03;101339.25;4982409;28;20204;-77
2021/12/12 03:47:37;;;;;;;14.93;10.83;;;;;;;2.28;89.50;101327.78;4973911;28;20286;-77
2021/12/12 03:50:10;;;;;;;16.47;11.07;;;;;;;2.24;89.11;101328.53;4973830;28;20266;-76
2021/12/12 03:52:37;;;;;;;13.70;10.83;;;;;;;2.26;89.40;101322.63;4986949;28;20238;-76
2021/12/12 03:55:05;;;;;;;13.07;10.13;;;;;;;2.30;89.34;101319.28;4976412;28;20648;-76
2021/12/12 03:57:32;;;;;;;11.80;9.80;;;;;;;2.28;88.88;101326.13;4985571;28;20208;-76
2021/12/12 03:59:59;;;;;;;11.10;9.70;;;;;;;2.31;88.19;101356.22;4985505;28;20200;-76
2021/12/12 04:02:28;;;;;;;11.37;9.23;;;;;;;2.35;88.50;101348.63;4977090;28;20200;-77
2021/12/12 04:04:55;;;;;;;13.60;10.33;;;;;;;2.36;88.15;101347.81;4984860;28;20254;-76
2021/12/12 04:07:24;;;;;;;12.27;9.90;;;;;;;2.36;88.78;101342.66;4984596;28;20230;-77
2021/12/12 04:09:52;;;;;;;11.00;9.80;;;;;;;2.40;88.53;101351.34;4989162;28;20296;-77
2021/12/12 04:12:21;;;;;;;10.90;9.80;;;;;;;2.46;87.40;101389.28;4972748;28;20254;-77
2021/12/12 04:14:50;;;;;;;13.53;9.80;;;;;;;2.45;87.13;101383.25;4973982;28;20200;-76
2021/12/12 04:17:20;;;;;;;11.60;8.83;;;;;;;2.50;86.66;101398.88;4974559;28;20737;-76
2021/12/12 04:19:51;;;;;;;12.83;9.30;;;;;;;2.53;86.61;101392.09;4972700;28;20200;-77
2021/12/12 04:22:17;;;;;;;12.90;9.73;;;;;;;2.52;87.28;101389.50;4973330;28;20209;-77
2021/12/12 04:24:46;;;;;;;14.10;9.73;;;;;;;2.54;87.07;101378.38;4975733;28;20686;-76
2021/12/12 04:27:15;;;;;;;10.93;9.50;;;;;;;2.54;87.37;101365.50;4974097;28;20246;-76
2021/12/12 04:29:44;;;;;;;9.80;8.80;;;;;;;2.53;88.22;101350.84;4969980;28;20258;-76
2021/12/12 04:32:15;;;;;;;9.40;8.60;;;;;;;2.49;87.78;101364.50;4972420;28;20252;-76
2021/12/12 04:34:46;;;;;;;12.13;8.77;;;;;;;2.56;87.76;101355.25;4971328;28;20197;-76
2021/12/12 04:37:15;;;;;;;10.43;8.37;;;;;;;2.55;86.55;101389.56;4975043;28;20624;-76
2021/12/12 04:39:47;;;;;;;10.87;9.73;;;;;;;2.62;86.07;101412.13;4975212;28;20259;-78
2021/12/12 04:42:16;;;;;;;12.30;8.93;;;;;;;2.63;85.19;101436.19;4974690;28;20212;-76
2021/12/12 04:44:46;;;;;;;11.63;8.97;;;;;;;2.68;85.74;101438.06;4975610;28;20230;-77
2021/12/12 04:50:10;;;;;;;14.13;9.27;;;;;;;2.71;85.94;101435.56;4972926;28;20209;-77
2021/12/12 04:52:44;;;;;;;16.70;10.00;;;;;;;2.78;85.66;101424.63;4979344;28;20200;-77
2021/12/12 04:55:15;;;;;;;10.53;8.33;;;;;;;2.80;85.89;101421.22;4977609;28;20590;-76
2021/12/12 04:57:46;;;;;;;11.67;9.30;;;;;;;2.69;85.57;101444.97;4979033;28;20227;-77
2021/12/12 05:00:17;;;;;;;9.20;8.17;;;;;;;2.67;85.56;101438.03;4973719;28;20608;-76
2021/12/12 05:02:55;;;;;;;9.23;8.33;;;;;;;2.81;85.92;101435.84;4975614;28;20227;-76
2021/12/12 05:05:27;;;;;;;11.83;8.00;;;;;;;2.85;85.17;101446.28;4976743;28;20251;-76
2021/12/12 05:08:04;;;;;;;7.87;7.07;;;;;;;2.84;84.65;101470.34;4976814;28;20228;-76
2021/12/12 05:10:36;;;;;;;10.67;7.30;;;;;;;2.87;84.79;101470.41;4973374;28;20211;-76
2021/12/12 05:13:08;;;;;;;8.00;7.20;;;;;;;2.89;84.61;101458.44;4976679;28;20638;-76
2021/12/12 05:15:37;;;;;;;12.20;7.27;;;;;;;2.90;84.76;101460.19;4977812;28;20283;-76
2021/12/12 05:18:10;;;;;;;7.17;6.03;;;;;;;2.89;84.47;101463.59;4975949;28;20747;-76
2021/12/12 05:20:42;;;;;;;8.17;6.77;;;;;;;2.96;85.20;101444.91;4976561;28;20663;-77
2021/12/12 05:23:13;;;;;;;6.53;5.73;;;;;;;2.91;86.18;101410.34;4977013;28;20738;-77
2021/12/12 05:25:46;;;;;;;7.33;6.10;;;;;;;2.85;86.11;101420.50;4980086;28;20218;-77
2021/12/12 05:28:17;;;;;;;7.70;6.10;;;;;;;2.85;86.36;101411.91;4979371;28;20212;-77
2021/12/12 05:30:44;;;;;;;11.33;7.07;;;;;;;2.84;86.00;101412.75;4979798;28;20205;-76
2021/12/12 05:33:14;;;;;;;8.27;6.87;;;;;;;2.89;86.15;101413.72;4981617;28;20232;-77
2021/12/12 05:35:41;;;;;;;11.30;6.57;;;;;;;2.96;86.56;101402.75;4977801;28;20232;-76
2021/12/12 05:38:10;;;;;;;9.27;6.03;;;;;;;2.96;87.15;101388.16;4980260;28;20228;-77
2021/12/12 05:40:39;;;;;;;6.67;5.63;;;;;;;3.00;87.35;101370.19;4990580;28;20667;-77
2021/12/12 05:43:07;;;;;;;11.03;8.13;;;;;;;2.92;87.38;101363.13;4981183;28;20209;-76
2021/12/12 05:45:35;;;;;;;7.97;5.87;;;;;;;2.96;87.41;101362.38;4989827;28;20227;-77
2021/12/12 05:48:06;;;;;;;7.27;6.50;;;;;;;3.00;86.71;101365.91;4982056;28;20250;-77
2021/12/12 05:50:33;;;;;;;9.40;7.20;;;;;;;3.07;85.96;101390.16;4995975;28;20197;-77
2021/12/12 05:53:00;;;;;;;9.43;7.53;;;;;;;3.08;86.14;101394.50;4990881;28;20228;-76
2021/12/12 05:55:30;;;;;;;9.30;7.30;;;;;;;3.07;85.46;101410.78;4987014;28;20313;-77
2021/12/12 05:57:59;;;;;;;8.37;7.30;;;;;;;3.08;85.97;101408.25;4991744;28;20203;-77
2021/12/12 06:00:30;;;;;;;9.03;7.57;;;;;;;3.04;86.32;101390.09;4981661;28;20248;-77
2021/12/12 06:02:58;;;;;;;9.17;7.63;;;;;;;3.04;86.34;101384.94;4979765;28;20206;-76
2021/12/12 06:05:25;;;;;;;9.37;7.07;;;;;;;2.90;85.91;101407.75;4981782;28;20271;-77
2021/12/12 06:07:55;;;;;;;9.97;8.20;;;;;;;2.94;85.39;101428.50;4988815;28;20284;-77
2021/12/12 06:10:24;;;;;;;8.70;7.70;;;;;;;3.02;85.70;101415.81;4996625;28;20206;-77
2021/12/12 06:12:53;;;;;;;10.23;7.50;;;;;;;3.01;84.73;101439.84;4981143;28;20202;-76
2021/12/12 06:15:22;;;;;;;11.17;8.47;;;;;;;3.06;85.24;101446.03;4991616;28;20231;-77
2021/12/12 06:17:50;;;;;;;9.50;7.57;;;;;;;3.11;84.75;101448.72;4992260;28;20204;-76
2021/12/12 06:20:17;;;;;;;9.20;8.00;;;;;;;3.07;83.46;101480.44;4990326;28;20567;-77
2021/12/12 06:22:45;;;;;;;11.07;8.43;;;;;;;3.07;83.93;101476.16;4986104;28;20205;-77
2021/12/12 06:25:11;;;;;;;9.47;8.43;;;;;;;2.98;83.95;101481.06;4990752;28;20230;-77
2021/12/12 06:27:38;;;;;;;13.57;9.30;;;;;;;2.95;85.03;101463.78;4990584;28;20227;-77
2021/12/12 06:30:10;;;;;;;11.70;8.00;;;;;;;2.96;85.16;101460.38;4981510;28;20204;-77
2021/12/12 06:32:37;;;;;;;10.27;9.10;;;;;;;3.03;85.37;101448.50;4990023;28;20603;-76
2021/12/12 06:35:06;;;;;;;10.40;8.73;;;;;;;2.94;85.08;101462.03;4980926;28;20253;-76
2021/12/12 06:37:33;;;;;;;11.50;8.87;;;;;;;2.94;84.04;101492.97;5038782;23;20795;-78
2021/12/12 06:40:00;;;;;;;11.67;9.17;;;;;;;2.96;84.04;101493.91;5011939;28;20216;-79
2021/12/12 06:42:28;;;;;;;11.17;8.17;;;;;;;3.00;84.39;101494.88;5025009;28;20203;-79
2021/12/12 06:44:54;;;;;;;11.90;9.37;;;;;;;3.01;84.96;101475.97;5018516;28;20242;-79
2021/12/12 06:47:24;;;;;;;9.67;8.77;;;;;;;3.02;84.83;101467.41;5022222;28;20226;-79
2021/12/12 06:49:50;;;;;;;14.27;9.23;;;;;;;3.09;85.18;101464.19;5012156;28;20630;-79
2021/12/12 06:52:20;;;;;;;10.57;9.27;;;;;;;3.06;85.77;101448.59;5013292;28;20210;-77
2021/12/12 06:54:50;;;;;;;14.20;10.03;;;;;;;3.06;86.54;101435.72;5009135;28;20198;-78
2021/12/12 06:57:17;;;;;;;11.43;9.50;;;;;;;3.06;86.52;101403.91;5013950;28;20226;-78
2021/12/12 06:59:45;;;;;;;12.80;10.53;;;;;;;3.03;88.30;101368.56;5019028;28;20686;-78
2021/12/12 07:02:13;;;;;;;12.77;10.93;;;;;;;3.02;88.55;101361.66;5006818;28;20235;-79
2021/12/12 07:04:44;;;;;;;10.77;9.17;;;;;;;3.05;88.56;101341.09;5010481;28;20214;-78
2021/12/12 07:07:14;;;;;;;13.27;10.80;;;;;;;3.02;88.99;101335.00;5009685;28;20744;-78
2021/12/12 07:09:42;;;;;;;16.23;11.33;;;;;;;3.04;89.54;101328.19;5010282;28;20218;-78
2021/12/12 07:12:12;;;;;;;13.13;10.43;;;;;;;3.07;89.32;101312.78;5014218;28;20630;-78
2021/12/12 07:14:41;;;;;;;12.13;11.03;;;;;;;3.08;90.13;101299.91;5009676;28;20576;-79
2021/12/12 07:17:09;;;;;;;13.17;10.33;;;;;;;3.14;90.06;101296.63;5016779;28;20228;-78
2021/12/12 07:19:38;;;;;;;11.97;10.77;;;;;;;3.11;90.65;101279.38;5005003;28;20343;-78
2021/12/12 07:22:06;;;;;;;10.50;9.37;;;;;;;3.08;90.85;101268.09;5013587;28;20212;-78
2021/12/12 07:24:33;;;;;;;10.33;8.83;;;;;;;3.02;91.51;101247.31;5016429;28;20201;-78
2021/12/12 07:27:00;;;;;;;15.43;10.17;;;;;;;3.01;91.45;101224.94;5024007;28;20227;-79
2021/12/12 07:29:28;;;;;;;11.40;10.20;;;;;;;3.04;91.64;101228.47;5015921;28;20250;-77
2021/12/12 07:31:56;;;;;;;10.73;9.73;;;;;;;3.06;91.43;101228.50;5018353;28;20212;-79
2021/12/12 07:34:23;;;;;;;10.60;9.50;;;;;;;3.06;91.87;101221.63;5021372;28;20205;-78
2021/12/12 07:36:53;;;;;;;12.73;10.10;;;;;;;3.08;92.01;101209.66;5012610;28;20228;-78
2021/12/12 07:39:22;;;;;;;12.67;9.50;;;;;;;3.07;91.69;101213.06;5011063;28;20203;-78
2021/12/12 07:41:50;;;;;;;12.80;9.90;;;;;;;3.13;91.44;101210.63;5004961;28;20207;-78
2021/12/12 07:44:19;;;;;;;18.73;11.10;;;;;;;3.12;92.24;101201.16;5021058;28;20234;-78
2021/12/12 07:46:47;;;;;;;13.27;9.30;;;;;;;3.15;92.40;101197.75;5009904;28;20219;-77
2021/12/12 07:49:16;;;;;;;14.97;9.87;;;;;;;3.05;91.68;101200.97;5023282;28;20218;-79
2021/12/12 07:51:42;;;;;;;11.37;10.17;;;;;;;3.10;91.55;101210.56;5005529;28;20206;-78
2021/12/12 07:54:10;;;;;;;12.23;9.93;;;;;;;3.04;91.85;101189.78;5005971;28;20210;-78
2021/12/12 07:56:42;;;;;;;12.50;10.50;;;;;;;3.10;92.00;101184.75;5015194;28;20216;-78
2021/12/12 07:59:10;;;;;;;13.00;9.20;;;;;;;3.05;91.65;101206.97;5011244;28;20203;-79
2021/12/12 08:01:40;;;;;;;10.30;8.93;;;;;;;3.05;91.42;101217.28;5021649;28;20207;-79
2021/12/12 08:04:07;;;;;;;9.57;8.50;;;;;;;3.06;91.25;101220.78;5013208;28;20704;-79
2021/12/12 08:06:34;;;;;;;10.67;7.87;;;;;;;3.11;91.88;101204.56;5013793;28;20222;-78
2021/12/12 08:09:02;;;;;;;11.63;8.97;;;;;;;3.17;91.78;101221.88;5010799;28;20233;-78
2021/12/12 08:11:33;;;;;;;8.47;7.60;;;;;;;3.22;91.30;101216.84;5007435;28;20204;-78
2021/12/12 08:14:03;;;;;;;10.77;7.73;;;;;;;3.29;91.35;101232.50;5006183;28;20197;-80
2021/12/12 08:16:30;;;;;;;9.77;7.30;;;;;;;3.30;91.56;101223.91;5005560;28;20290;-80
2021/12/12 08:18:58;;;;;;;9.17;7.47;;;;;;;3.32;91.07;101232.56;5019203;28;20199;-78
2021/12/12 08:21:25;;;;;;;9.47;7.00;;;;;;;3.36;91.09;101228.34;5023032;28;20646;-78
2021/12/12 08:23:55;;;;;;;8.00;7.20;;;;;;;3.36;91.76;101213.75;5012535;28;20204;-79
2021/12/12 08:26:23;;;;;;;9.33;6.43;;;;;;;3.38;91.37;101213.78;5012257;28;20217;-79
2021/12/12 08:28:49;;;;;;;6.60;6.00;;;;;;;3.42;90.57;101225.06;5016943;28;20225;-79
2021/12/12 08:31:17;;;;;;;9.50;6.40;;;;;;;3.40;89.88;101253.41;5023358;28;20200;-79
2021/12/12 08:33:44;;;;;;;10.20;6.50;;;;;;;3.44;90.46;101259.50;5007071;28;20231;-80
2021/12/12 08:36:11;;;;;;;9.27;6.83;;;;;;;3.43;90.06;101258.66;5011197;28;20224;-78
2021/12/12 08:38:38;;;;;;;6.87;5.90;;;;;;;3.43;89.58;101271.56;5007411;28;20249;-80
2021/12/12 08:41:06;;;;;;;7.27;6.67;;;;;;;3.47;89.67;101287.94;5015151;28;20206;-79
2021/12/12 08:43:33;;;;;;;10.67;5.80;;;;;;;3.38;90.31;101286.91;5008111;28;20213;-79
2021/12/12 08:46:02;;;;;;;9.10;5.17;;;;;;;3.24;89.49;101283.13;5019541;28;20219;-80
2021/12/12 08:48:32;;;;;;;5.80;4.90;;;;;;;3.28;89.43;101291.81;5009206;28;20266;-79
2021/12/12 08:51:03;;;;;;;7.97;5.00;;;;;;;3.30;89.66;101274.66;5006795;28;20199;-77
2021/12/12 08:53:30;;;;;;;6.73;5.10;;;;;;;3.35;90.53;101262.72;5000528;28;20198;-78
2021/12/12 08:55:58;;;;;;;7.77;5.13;;;;;;;3.35;90.47;101249.81;4998893;28;20932;-79
2021/12/12 08:58:29;;;;;;;9.60;4.80;;;;;;;3.37;90.57;101241.31;5004352;28;20200;-78
2021/12/12 09:00:59;;;;;;;9.50;5.13;;;;;;;3.34;90.94;101235.19;5006038;28;20748;-79
2021/12/12 09:03:31;;;;;;;7.23;5.13;;;;;;;3.41;90.86;101237.09;5013918;28;20203;-79
2021/12/12 09:05:59;;;;;;;6.10;4.73;;;;;;;3.32;90.88;101219.66;4999624;28;20708;-79
2021/12/12 09:08:34;;;;;;;6.23;5.03;;;;;;;3.37;91.62;101209.47;4999553;28;20212;-79
2021/12/12 09:11:06;;;;;;;8.07;4.90;;;;;;;3.34;91.78;101191.31;5002521;28;20209;-77
2021/12/12 09:13:39;;;;;;;6.17;4.63;;;;;;;3.35;92.26;101172.41;5011710;28;20203;-78
2021/12/12 09:16:08;;;;;;;8.40;5.13;;;;;;;3.34;92.70;101144.88;5003839;28;20716;-77
2021/12/12 09:18:39;;;;;;;7.07;4.77;;;;;;;3.38;93.14;101138.94;4997159;28;20212;-77
2021/12/12 09:21:11;;;;;;;8.23;5.33;;;;;;;3.41;93.30;101122.66;5004103;28;20208;-77
2021/12/12 09:23:44;;;;;;;6.13;5.33;;;;;;;3.42;93.37;101109.78;4996011;28;20194;-77
2021/12/12 09:26:13;;;;;;;9.57;5.40;;;;;;;3.35;93.62;101102.75;5004827;28;20306;-77
2021/12/12 09:28:45;;;;;;;6.30;4.77;;;;;;;3.33;94.21;101104.41;5002280;28;20203;-78
2021/12/12 09:31:15;;;;;;;6.03;5.10;;;;;;;3.32;94.55;101084.63;4999272;28;20676;-78
2021/12/12 09:33:48;;;;;;;9.03;5.67;;;;;;;3.30;94.72;101076.00;4991560;28;20209;-80
2021/12/12 09:36:19;;;;;;;5.73;4.87;;;;;;;3.27;95.19;101076.81;4992819;28;20287;-77
2021/12/12 09:38:49;;;;;;;6.20;5.13;;;;;;;3.24;95.85;101047.47;4995232;28;20204;-77
2021/12/12 09:41:24;;;;;;;8.27;5.00;;;;;;;3.25;95.49;101041.47;4994211;28;20234;-78
2021/12/12 09:44:01;;;;;;;5.13;4.63;;;;;;;3.29;95.58;101040.69;4994001;28;20187;-78
2021/12/12 09:46:57;;;;;;;6.13;5.03;;;;;;;3.44;95.59;101041.00;4993629;28;20221;-78
2021/12/12 09:53:09;;;;;;;5.83;4.33;;;;;;;3.36;95.20;101051.19;4992920;28;20712;-78
2021/12/12 09:55:43;;;;;;;5.93;4.43;;;;;;;3.43;95.22;101047.03;4993375;28;20258;-79
2021/12/12 09:58:21;;;;;;;5.80;4.43;;;;;;;3.48;95.15;101049.69;4995790;28;20252;-78
2021/12/12 10:00:58;;;;;;;5.60;3.83;;;;;;;3.56;94.95;101045.53;4995184;28;20207;-79
2021/12/12 10:03:34;;;;;;;7.63;4.67;;;;;;;3.63;94.72;101059.44;4996907;28;20279;-78
2021/12/12 10:06:09;;;;;;;3.93;3.40;;;;;;;3.67;94.67;101058.69;4991310;28;20231;-79
2021/12/12 10:08:54;;;;;;;4.73;3.50;;;;;;;3.74;94.44;101057.94;4994058;28;20245;-78
2021/12/12 10:11:31;;;;;;;3.53;3.23;;;;;;;3.80;95.14;101036.53;5003720;28;20206;-78
2021/12/12 10:14:06;;;;;;;3.77;3.00;;;;;;;3.78;94.17;101065.75;5000601;28;20250;-78
2021/12/12 10:16:38;;;;;;;7.10;3.30;;;;;;;3.85;93.60;101077.09;4999626;28;20264;-78
2021/12/12 10:19:13;;;;;;;4.37;3.40;;;;;;;3.90;93.71;101079.75;4997063;28;20259;-78
2021/12/12 10:21:57;;;;;;;4.07;3.70;;;;;;;3.87;93.24;101102.94;4997974;28;20188;-77
2021/12/12 10:24:31;;;;;;;4.10;3.10;;;;;;;3.93;93.52;101090.16;4996082;28;20613;-78
2021/12/12 10:27:04;;;;;;;4.57;3.53;;;;;;;3.93;92.97;101095.31;4994499;28;20775;-78
2021/12/12 10:29:38;;;;;;;8.20;3.73;;;;;;;4.02;93.17;101081.69;4995129;28;20643;-78
2021/12/12 10:32:12;;;;;;;5.23;4.17;;;;;;;4.01;92.98;101070.50;4995130;28;20607;-77
2021/12/12 10:34:43;;;;;;;3.47;3.10;;;;;;;3.98;92.68;101078.16;4994671;28;20201;-78
2021/12/12 10:37:16;;;;;;;9.43;3.87;;;;;;;4.02;92.44;101089.44;4999469;28;20260;-78
2021/12/12 10:39:48;;;;;;;5.53;3.83;;;;;;;3.98;92.86;101094.56;4998413;28;20196;-78
2021/12/12 10:42:17;;;;;;;4.83;4.07;;;;;;;3.97;92.54;101084.19;4996858;28;20197;-77
2021/12/12 10:44:48;;;;;;;3.67;3.30;;;;;;;4.03;93.59;101079.13;4990077;28;20264;-78
2021/12/12 10:47:19;;;;;;;4.93;4.00;;;;;;;3.89;93.14;101078.88;5001164;28;20219;-77
2021/12/12 10:49:58;;;;;;;4.40;3.87;;;;;;;3.90;93.68;101069.41;4997429;28;20226;-79
2021/12/12 10:52:34;;;;;;;6.43;4.03;;;;;;;3.91;94.32;101060.84;4993860;28;20248;-78
2021/12/12 10:55:07;;;;;;;4.27;3.87;;;;;;;3.88;93.92;101053.03;4996274;28;20264;-78
2021/12/12 10:57:37;;;;;;;4.40;3.70;;;;;;;3.94;94.24;101043.69;4999388;28;20225;-78
2021/12/12 11:00:09;;;;;;;6.47;3.77;;;;;;;3.97;94.21;101041.16;4997270;28;20446;-79
2021/12/12 11:02:42;;;;;;;5.13;3.67;;;;;;;3.96;94.27;101041.13;4996190;28;20189;-78
2021/12/12 11:05:13;;;;;;;6.10;4.10;;;;;;;4.01;94.20;101013.66;4995712;28;20216;-80
2021/12/12 11:07:46;;;;;;;4.03;3.63;;;;;;;4.06;94.37;101013.72;4997436;28;20261;-79
2021/12/12 11:10:18;;;;;;;4.60;3.77;;;;;;;4.06;94.58;101034.41;5000673;28;20965;-78
2021/12/12 11:12:51;;;;;;;5.27;3.80;;;;;;;4.10;94.12;101020.69;5003963;28;20207;-79
2021/12/12 11:15:22;;;;;;;4.33;3.60;;;;;;;4.15;94.58;101022.50;5002563;28;20241;-79
2021/12/12 11:17:55;;;;;;;4.53;3.43;;;;;;;4.15;94.10;101027.69;5008139;28;20714;-80
2021/12/12 11:20:25;;;;;;;4.10;3.37;;;;;;;4.23;94.38;101032.13;5011362;28;20198;-79
2021/12/12 11:22:55;;;;;;;4.03;3.60;;;;;;;4.24;94.32;101031.25;5008699;28;20198;-79
2021/12/12 11:25:29;;;;;;;4.90;3.10;;;;;;;4.24;94.09;101036.41;5015283;28;20214;-79
2021/12/12 11:28:00;;;;;;;3.80;3.20;;;;;;;4.30;94.15;101036.53;5007533;28;20200;-78
2021/12/12 11:30:30;;;;;;;4.73;3.43;;;;;;;4.29;93.71;101033.06;5017823;28;20223;-78
2021/12/12 11:32:59;;;;;;;3.67;3.33;;;;;;;4.32;94.37;101021.91;5007856;28;20208;-78
2021/12/12 11:35:28;;;;;;;3.30;2.87;;;;;;;4.32;94.30;101025.38;5013035;28;20204;-80
2021/12/12 11:37:59;;;;;;;2.90;2.70;;;;;;;4.39;94.85;101013.41;5006398;28;20237;-79
2021/12/12 11:40:32;;;;;;;4.37;3.60;;;;;;;4.41;94.49;101005.69;5009057;28;20242;-79
2021/12/12 11:43:02;;;;;;;3.07;2.87;;;;;;;4.46;94.51;101012.69;5003778;28;20202;-79
2021/12/12 11:45:31;;;;;;;4.03;3.10;;;;;;;4.49;94.19;101009.25;5005412;28;20198;-79
2021/12/12 11:48:12;;;;;;;3.30;3.07;;;;;;;4.52;94.41;101009.28;5002264;28;20293;-79
2021/12/12 11:50:46;;;;;;;3.60;2.93;;;;;;;4.43;94.62;101004.88;5004165;28;20225;-79
2021/12/12 11:53:17;;;;;;;4.30;3.27;;;;;;;4.51;94.78;100994.63;4995562;28;20204;-79
2021/12/12 11:55:49;;;;;;;2.70;2.50;;;;;;;4.51;94.84;100989.47;5003301;28;20235;-79